sensor_id;sensor_type;location;lat;lon;timestamp;pressure;altitude;pressure_sealevel;temperature
15575;BMP180;7888;46.748;8.102;2023-04-20T00:01:51;93597.00;;;15.20
15575;BMP180;7888;46.748;8.102;2023-04-20T00:04:17;93600.00;;;15.20
15575;BMP180;7888;46.748;8.102;2023-04-20T00:06:43;93602.00;;;15.20
15575;BMP180;7888;46.748;8.102;2023-04-20T00:09:12;93584.00;;;15.20
15575;BMP180;7888;46.748;8.102;2023-04-20T00:11:39;93594.00;;;15.20
15575;BMP180;7888;46.748;8.102;2023-04-20T00:14:06;93585.00;;;15.20
15575;BMP180;7888;46.748;8.102;2023-04-20T00:16:32;93582.00;;;15.20
15575;BMP180;7888;46.748;8.102;2023-04-20T00:18:59;93546.00;;;15.10
15575;BMP180;7888;46.748;8.102;2023-04-20T00:21:25;93577.00;;;15.00
15575;BMP180;7888;46.748;8.102;2023-04-20T00:23:51;93556.00;;;14.90
15575;BMP180;7888;46.748;8.102;2023-04-20T00:26:18;93568.00;;;14.90
15575;BMP180;7888;46.748;8.102;2023-04-20T00:28:45;93563.00;;;14.80
15575;BMP180;7888;46.748;8.102;2023-04-20T00:31:11;93552.00;;;14.80
15575;BMP180;7888;46.748;8.102;2023-04-20T00:33:37;93533.00;;;14.70
15575;BMP180;7888;46.748;8.102;2023-04-20T00:36:03;93541.00;;;14.60
15575;BMP180;7888;46.748;8.102;2023-04-20T00:38:28;93537.00;;;14.50
15575;BMP180;7888;46.748;8.102;2023-04-20T00:40:54;93539.00;;;14.50
15575;BMP180;7888;46.748;8.102;2023-04-20T00:43:21;93531.00;;;14.40
15575;BMP180;7888;46.748;8.102;2023-04-20T00:45:47;93532.00;;;14.40
15575;BMP180;7888;46.748;8.102;2023-04-20T00:48:13;93522.00;;;14.30
15575;BMP180;7888;46.748;8.102;2023-04-20T00:50:40;93508.00;;;14.20
15575;BMP180;7888;46.748;8.102;2023-04-20T00:53:07;93517.00;;;14.10
15575;BMP180;7888;46.748;8.102;2023-04-20T00:55:36;93523.00;;;14.10
15575;BMP180;7888;46.748;8.102;2023-04-20T00:58:02;93527.00;;;14.10
15575;BMP180;7888;46.748;8.102;2023-04-20T01:00:28;93520.00;;;14.10
15575;BMP180;7888;46.748;8.102;2023-04-20T01:02:54;93527.00;;;14.10
15575;BMP180;7888;46.748;8.102;2023-04-20T01:05:20;93525.00;;;14.00
15575;BMP180;7888;46.748;8.102;2023-04-20T01:07:46;93525.00;;;14.00
15575;BMP180;7888;46.748;8.102;2023-04-20T01:10:12;93518.00;;;14.00
15575;BMP180;7888;46.748;8.102;2023-04-20T01:12:38;93518.00;;;14.10
15575;BMP180;7888;46.748;8.102;2023-04-20T01:15:05;93517.00;;;14.00
15575;BMP180;7888;46.748;8.102;2023-04-20T01:17:32;93493.00;;;14.10
15575;BMP180;7888;46.748;8.102;2023-04-20T01:19:59;93504.00;;;14.10
15575;BMP180;7888;46.748;8.102;2023-04-20T01:22:25;93509.00;;;14.10
15575;BMP180;7888;46.748;8.102;2023-04-20T01:24:52;93500.00;;;14.10
15575;BMP180;7888;46.748;8.102;2023-04-20T01:27:18;93504.00;;;14.10
15575;BMP180;7888;46.748;8.102;2023-04-20T01:29:44;93503.00;;;14.10
15575;BMP180;7888;46.748;8.102;2023-04-20T01:32:11;93454.00;;;14.10
15575;BMP180;7888;46.748;8.102;2023-04-20T01:34:37;93504.00;;;14.10
15575;BMP180;7888;46.748;8.102;2023-04-20T01:37:04;93493.00;;;14.10
15575;BMP180;7888;46.748;8.102;2023-04-20T01:39:38;93500.00;;;14.00
15575;BMP180;7888;46.748;8.102;2023-04-20T01:42:05;93486.00;;;14.00
15575;BMP180;7888;46.748;8.102;2023-04-20T01:44:31;93485.00;;;13.90
15575;BMP180;7888;46.748;8.102;2023-04-20T01:46:57;93483.00;;;13.80
15575;BMP180;7888;46.748;8.102;2023-04-20T01:49:23;93472.00;;;13.80
15575;BMP180;7888;46.748;8.102;2023-04-20T01:51:49;93480.00;;;13.80
15575;BMP180;7888;46.748;8.102;2023-04-20T01:54:15;93478.00;;;13.80
15575;BMP180;7888;46.748;8.102;2023-04-20T01:56:40;93478.00;;;13.80
15575;BMP180;7888;46.748;8.102;2023-04-20T01:59:06;93463.00;;;13.70
15575;BMP180;7888;46.748;8.102;2023-04-20T02:01:32;93454.00;;;13.60
15575;BMP180;7888;46.748;8.102;2023-04-20T02:03:58;93440.00;;;13.60
15575;BMP180;7888;46.748;8.102;2023-04-20T02:06:24;93463.00;;;13.70
15575;BMP180;7888;46.748;8.102;2023-04-20T02:08:50;93463.00;;;13.70
15575;BMP180;7888;46.748;8.102;2023-04-20T02:11:15;93411.00;;;13.70
15575;BMP180;7888;46.748;8.102;2023-04-20T02:13:41;93457.00;;;13.60
15575;BMP180;7888;46.748;8.102;2023-04-20T02:16:07;93461.00;;;13.60
15575;BMP180;7888;46.748;8.102;2023-04-20T02:18:33;93438.00;;;13.60
15575;BMP180;7888;46.748;8.102;2023-04-20T02:21:00;93461.00;;;13.50
15575;BMP180;7888;46.748;8.102;2023-04-20T02:23:26;93439.00;;;13.50
15575;BMP180;7888;46.748;8.102;2023-04-20T02:25:52;93429.00;;;13.50
15575;BMP180;7888;46.748;8.102;2023-04-20T02:28:18;93454.00;;;13.50
15575;BMP180;7888;46.748;8.102;2023-04-20T02:30:43;93448.00;;;13.40
15575;BMP180;7888;46.748;8.102;2023-04-20T02:33:09;93451.00;;;13.40
15575;BMP180;7888;46.748;8.102;2023-04-20T02:35:36;93449.00;;;13.40
15575;BMP180;7888;46.748;8.102;2023-04-20T02:38:01;93445.00;;;13.30
15575;BMP180;7888;46.748;8.102;2023-04-20T02:40:27;93440.00;;;13.30
15575;BMP180;7888;46.748;8.102;2023-04-20T02:42:53;93438.00;;;13.30
15575;BMP180;7888;46.748;8.102;2023-04-20T02:45:19;93436.00;;;13.20
15575;BMP180;7888;46.748;8.102;2023-04-20T02:47:45;93447.00;;;13.20
15575;BMP180;7888;46.748;8.102;2023-04-20T02:50:13;93447.00;;;13.20
15575;BMP180;7888;46.748;8.102;2023-04-20T02:52:39;93436.00;;;13.20
15575;BMP180;7888;46.748;8.102;2023-04-20T02:55:05;93444.00;;;13.20
15575;BMP180;7888;46.748;8.102;2023-04-20T02:57:31;93420.00;;;13.10
15575;BMP180;7888;46.748;8.102;2023-04-20T02:59:57;93442.00;;;13.10
15575;BMP180;7888;46.748;8.102;2023-04-20T03:02:23;93446.00;;;13.10
15575;BMP180;7888;46.748;8.102;2023-04-20T03:04:49;93420.00;;;13.00
15575;BMP180;7888;46.748;8.102;2023-04-20T03:07:15;93439.00;;;13.10
15575;BMP180;7888;46.748;8.102;2023-04-20T03:09:41;93435.00;;;13.10
15575;BMP180;7888;46.748;8.102;2023-04-20T03:12:07;93430.00;;;13.10
15575;BMP180;7888;46.748;8.102;2023-04-20T03:14:32;93439.00;;;13.10
15575;BMP180;7888;46.748;8.102;2023-04-20T03:16:58;93436.00;;;13.10
15575;BMP180;7888;46.748;8.102;2023-04-20T03:19:24;93428.00;;;13.10
15575;BMP180;7888;46.748;8.102;2023-04-20T03:21:50;93410.00;;;13.10
15575;BMP180;7888;46.748;8.102;2023-04-20T03:24:16;93412.00;;;13.00
15575;BMP180;7888;46.748;8.102;2023-04-20T03:26:42;93430.00;;;13.00
15575;BMP180;7888;46.748;8.102;2023-04-20T03:29:08;93430.00;;;13.10
15575;BMP180;7888;46.748;8.102;2023-04-20T03:31:33;93434.00;;;13.00
15575;BMP180;7888;46.748;8.102;2023-04-20T03:33:59;93430.00;;;13.00
15575;BMP180;7888;46.748;8.102;2023-04-20T03:36:25;93419.00;;;12.90
15575;BMP180;7888;46.748;8.102;2023-04-20T03:38:53;93428.00;;;13.00
15575;BMP180;7888;46.748;8.102;2023-04-20T03:41:18;93433.00;;;12.90
15575;BMP180;7888;46.748;8.102;2023-04-20T03:43:44;93407.00;;;12.90
15575;BMP180;7888;46.748;8.102;2023-04-20T03:46:10;93434.00;;;12.90
15575;BMP180;7888;46.748;8.102;2023-04-20T03:48:37;93407.00;;;12.80
15575;BMP180;7888;46.748;8.102;2023-04-20T03:51:03;93423.00;;;12.80
15575;BMP180;7888;46.748;8.102;2023-04-20T03:53:28;93423.00;;;12.80
15575;BMP180;7888;46.748;8.102;2023-04-20T03:55:55;93413.00;;;12.70
15575;BMP180;7888;46.748;8.102;2023-04-20T03:58:21;93418.00;;;12.80
15575;BMP180;7888;46.748;8.102;2023-04-20T04:00:47;93415.00;;;12.80
15575;BMP180;7888;46.748;8.102;2023-04-20T04:03:13;93412.00;;;12.80
15575;BMP180;7888;46.748;8.102;2023-04-20T04:05:40;93400.00;;;12.80
15575;BMP180;7888;46.748;8.102;2023-04-20T04:08:06;93408.00;;;12.80
15575;BMP180;7888;46.748;8.102;2023-04-20T04:10:32;93412.00;;;12.80
15575;BMP180;7888;46.748;8.102;2023-04-20T04:12:58;93408.00;;;12.80
15575;BMP180;7888;46.748;8.102;2023-04-20T04:15:24;93374.00;;;12.80
15575;BMP180;7888;46.748;8.102;2023-04-20T04:17:52;93374.00;;;12.80
15575;BMP180;7888;46.748;8.102;2023-04-20T04:20:18;93394.00;;;12.80
15575;BMP180;7888;46.748;8.102;2023-04-20T04:22:44;93403.00;;;12.90
15575;BMP180;7888;46.748;8.102;2023-04-20T04:25:10;93394.00;;;12.90
15575;BMP180;7888;46.748;8.102;2023-04-20T04:27:36;93385.00;;;12.80
15575;BMP180;7888;46.748;8.102;2023-04-20T04:30:03;93396.00;;;12.80
15575;BMP180;7888;46.748;8.102;2023-04-20T04:32:29;93382.00;;;12.80
15575;BMP180;7888;46.748;8.102;2023-04-20T04:34:55;93395.00;;;12.80
15575;BMP180;7888;46.748;8.102;2023-04-20T04:37:22;93391.00;;;12.80
15575;BMP180;7888;46.748;8.102;2023-04-20T04:39:49;93392.00;;;12.80
15575;BMP180;7888;46.748;8.102;2023-04-20T04:42:17;93395.00;;;12.80
15575;BMP180;7888;46.748;8.102;2023-04-20T04:44:43;93378.00;;;12.80
15575;BMP180;7888;46.748;8.102;2023-04-20T04:47:09;93395.00;;;12.90
15575;BMP180;7888;46.748;8.102;2023-04-20T04:49:36;93390.00;;;12.90
15575;BMP180;7888;46.748;8.102;2023-04-20T04:52:02;93396.00;;;12.90
15575;BMP180;7888;46.748;8.102;2023-04-20T04:54:28;93392.00;;;12.90
15575;BMP180;7888;46.748;8.102;2023-04-20T04:56:54;93389.00;;;12.90
15575;BMP180;7888;46.748;8.102;2023-04-20T04:59:20;93400.00;;;13.00
15575;BMP180;7888;46.748;8.102;2023-04-20T05:01:46;93390.00;;;13.00
15575;BMP180;7888;46.748;8.102;2023-04-20T05:04:11;93385.00;;;13.00
15575;BMP180;7888;46.748;8.102;2023-04-20T05:06:37;93390.00;;;13.00
15575;BMP180;7888;46.748;8.102;2023-04-20T05:09:03;93394.00;;;13.00
15575;BMP180;7888;46.748;8.102;2023-04-20T05:11:30;93397.00;;;13.00
15575;BMP180;7888;46.748;8.102;2023-04-20T05:13:56;93393.00;;;13.00
15575;BMP180;7888;46.748;8.102;2023-04-20T05:16:22;93374.00;;;12.90
15575;BMP180;7888;46.748;8.102;2023-04-20T05:18:48;93399.00;;;13.00
15575;BMP180;7888;46.748;8.102;2023-04-20T05:21:13;93400.00;;;13.00
15575;BMP180;7888;46.748;8.102;2023-04-20T05:23:39;93378.00;;;13.00
15575;BMP180;7888;46.748;8.102;2023-04-20T05:26:05;93395.00;;;13.00
15575;BMP180;7888;46.748;8.102;2023-04-20T05:28:33;93388.00;;;13.00
15575;BMP180;7888;46.748;8.102;2023-04-20T05:30:59;93390.00;;;13.10
15575;BMP180;7888;46.748;8.102;2023-04-20T05:33:26;93387.00;;;13.10
15575;BMP180;7888;46.748;8.102;2023-04-20T05:35:56;93403.00;;;13.00
15575;BMP180;7888;46.748;8.102;2023-04-20T05:38:22;93386.00;;;13.10
15575;BMP180;7888;46.748;8.102;2023-04-20T05:40:49;93366.00;;;13.10
15575;BMP180;7888;46.748;8.102;2023-04-20T05:43:15;93387.00;;;13.10
15575;BMP180;7888;46.748;8.102;2023-04-20T05:45:43;93381.00;;;13.10
15575;BMP180;7888;46.748;8.102;2023-04-20T05:48:09;93381.00;;;13.10
15575;BMP180;7888;46.748;8.102;2023-04-20T05:50:35;93382.00;;;13.10
15575;BMP180;7888;46.748;8.102;2023-04-20T05:53:01;93381.00;;;13.10
15575;BMP180;7888;46.748;8.102;2023-04-20T05:55:27;93385.00;;;13.10
15575;BMP180;7888;46.748;8.102;2023-04-20T05:57:53;93378.00;;;13.10
15575;BMP180;7888;46.748;8.102;2023-04-20T06:00:20;93385.00;;;13.10
15575;BMP180;7888;46.748;8.102;2023-04-20T06:02:46;93353.00;;;13.10
15575;BMP180;7888;46.748;8.102;2023-04-20T06:05:12;93371.00;;;13.10
15575;BMP180;7888;46.748;8.102;2023-04-20T06:07:38;93375.00;;;13.10
15575;BMP180;7888;46.748;8.102;2023-04-20T06:10:06;93367.00;;;13.00
15575;BMP180;7888;46.748;8.102;2023-04-20T06:12:34;93384.00;;;13.10
15575;BMP180;7888;46.748;8.102;2023-04-20T06:15:00;93340.00;;;13.10
15575;BMP180;7888;46.748;8.102;2023-04-20T06:17:26;93379.00;;;13.00
15575;BMP180;7888;46.748;8.102;2023-04-20T06:19:53;93381.00;;;13.00
15575;BMP180;7888;46.748;8.102;2023-04-20T06:22:19;93378.00;;;13.00
15575;BMP180;7888;46.748;8.102;2023-04-20T06:24:46;93365.00;;;12.90
15575;BMP180;7888;46.748;8.102;2023-04-20T06:27:12;93384.00;;;13.00
15575;BMP180;7888;46.748;8.102;2023-04-20T06:29:39;93383.00;;;12.90
15575;BMP180;7888;46.748;8.102;2023-04-20T06:32:05;93389.00;;;12.90
15575;BMP180;7888;46.748;8.102;2023-04-20T06:34:31;93382.00;;;12.80
15575;BMP180;7888;46.748;8.102;2023-04-20T06:36:57;93386.00;;;12.90
15575;BMP180;7888;46.748;8.102;2023-04-20T06:39:23;93383.00;;;12.80
15575;BMP180;7888;46.748;8.102;2023-04-20T06:41:50;93383.00;;;12.80
15575;BMP180;7888;46.748;8.102;2023-04-20T06:44:16;93378.00;;;12.80
15575;BMP180;7888;46.748;8.102;2023-04-20T06:46:42;93377.00;;;12.80
15575;BMP180;7888;46.748;8.102;2023-04-20T06:49:09;93371.00;;;12.80
15575;BMP180;7888;46.748;8.102;2023-04-20T06:51:35;93384.00;;;12.70
15575;BMP180;7888;46.748;8.102;2023-04-20T06:54:01;93384.00;;;12.70
15575;BMP180;7888;46.748;8.102;2023-04-20T06:56:27;93341.00;;;12.60
15575;BMP180;7888;46.748;8.102;2023-04-20T06:58:53;93377.00;;;12.70
15575;BMP180;7888;46.748;8.102;2023-04-20T07:01:20;93385.00;;;12.70
15575;BMP180;7888;46.748;8.102;2023-04-20T07:03:46;93386.00;;;12.70
15575;BMP180;7888;46.748;8.102;2023-04-20T07:06:12;93372.00;;;12.70
15575;BMP180;7888;46.748;8.102;2023-04-20T07:08:38;93389.00;;;12.80
15575;BMP180;7888;46.748;8.102;2023-04-20T07:11:04;93385.00;;;12.80
15575;BMP180;7888;46.748;8.102;2023-04-20T07:13:31;93393.00;;;12.70
15575;BMP180;7888;46.748;8.102;2023-04-20T07:15:57;93386.00;;;12.70
15575;BMP180;7888;46.748;8.102;2023-04-20T07:18:23;93389.00;;;12.70
15575;BMP180;7888;46.748;8.102;2023-04-20T07:20:51;93401.00;;;12.60
15575;BMP180;7888;46.748;8.102;2023-04-20T07:23:17;93372.00;;;12.70
15575;BMP180;7888;46.748;8.102;2023-04-20T07:25:43;93384.00;;;12.70
15575;BMP180;7888;46.748;8.102;2023-04-20T07:28:09;93378.00;;;12.80
15575;BMP180;7888;46.748;8.102;2023-04-20T07:30:36;93383.00;;;12.80
15575;BMP180;7888;46.748;8.102;2023-04-20T07:33:02;93382.00;;;12.90
15575;BMP180;7888;46.748;8.102;2023-04-20T07:35:28;93374.00;;;12.90
15575;BMP180;7888;46.748;8.102;2023-04-20T07:37:54;93381.00;;;12.90
15575;BMP180;7888;46.748;8.102;2023-04-20T07:40:21;93362.00;;;12.80
15575;BMP180;7888;46.748;8.102;2023-04-20T07:42:47;93365.00;;;12.80
15575;BMP180;7888;46.748;8.102;2023-04-20T07:45:13;93386.00;;;12.80
15575;BMP180;7888;46.748;8.102;2023-04-20T07:47:40;93386.00;;;12.80
15575;BMP180;7888;46.748;8.102;2023-04-20T07:50:09;93391.00;;;12.80
15575;BMP180;7888;46.748;8.102;2023-04-20T07:52:35;93394.00;;;12.80
15575;BMP180;7888;46.748;8.102;2023-04-20T07:55:02;93397.00;;;12.80
15575;BMP180;7888;46.748;8.102;2023-04-20T07:57:28;93408.00;;;12.80
15575;BMP180;7888;46.748;8.102;2023-04-20T07:59:54;93394.00;;;12.90
15575;BMP180;7888;46.748;8.102;2023-04-20T08:02:21;93381.00;;;12.90
15575;BMP180;7888;46.748;8.102;2023-04-20T08:04:47;93372.00;;;12.80
15575;BMP180;7888;46.748;8.102;2023-04-20T08:07:14;93379.00;;;12.80
15575;BMP180;7888;46.748;8.102;2023-04-20T08:09:40;93371.00;;;12.80
15575;BMP180;7888;46.748;8.102;2023-04-20T08:12:06;93365.00;;;12.80
15575;BMP180;7888;46.748;8.102;2023-04-20T08:14:33;93336.00;;;12.80
15575;BMP180;7888;46.748;8.102;2023-04-20T08:16:59;93361.00;;;12.90
15575;BMP180;7888;46.748;8.102;2023-04-20T08:19:25;93354.00;;;13.00
15575;BMP180;7888;46.748;8.102;2023-04-20T08:21:52;93346.00;;;13.00
15575;BMP180;7888;46.748;8.102;2023-04-20T08:24:19;93346.00;;;13.00
15575;BMP180;7888;46.748;8.102;2023-04-20T08:26:45;93350.00;;;13.00
15575;BMP180;7888;46.748;8.102;2023-04-20T08:29:11;93357.00;;;12.90
15575;BMP180;7888;46.748;8.102;2023-04-20T08:31:37;93355.00;;;12.90
15575;BMP180;7888;46.748;8.102;2023-04-20T08:34:04;93355.00;;;12.90
15575;BMP180;7888;46.748;8.102;2023-04-20T08:36:30;93341.00;;;12.90
15575;BMP180;7888;46.748;8.102;2023-04-20T08:39:10;93377.00;;;12.90
15575;BMP180;7888;46.748;8.102;2023-04-20T08:41:37;93359.00;;;13.00
15575;BMP180;7888;46.748;8.102;2023-04-20T08:44:03;93374.00;;;13.10
15575;BMP180;7888;46.748;8.102;2023-04-20T08:46:32;93377.00;;;13.10
15575;BMP180;7888;46.748;8.102;2023-04-20T08:49:00;93360.00;;;12.90
15575;BMP180;7888;46.748;8.102;2023-04-20T08:51:29;93377.00;;;13.00
15575;BMP180;7888;46.748;8.102;2023-04-20T08:54:03;93375.00;;;12.80
15575;BMP180;7888;46.748;8.102;2023-04-20T08:56:39;93373.00;;;12.80
15575;BMP180;7888;46.748;8.102;2023-04-20T08:59:05;93368.00;;;12.80
15575;BMP180;7888;46.748;8.102;2023-04-20T09:01:36;93360.00;;;12.80
15575;BMP180;7888;46.748;8.102;2023-04-20T09:04:15;93366.00;;;12.70
15575;BMP180;7888;46.748;8.102;2023-04-20T09:06:49;93358.00;;;12.80
15575;BMP180;7888;46.748;8.102;2023-04-20T09:09:17;93345.00;;;12.80
15575;BMP180;7888;46.748;8.102;2023-04-20T09:11:44;93358.00;;;12.90
15575;BMP180;7888;46.748;8.102;2023-04-20T09:14:13;93354.00;;;12.90
15575;BMP180;7888;46.748;8.102;2023-04-20T09:16:51;93338.00;;;13.00
15575;BMP180;7888;46.748;8.102;2023-04-20T09:19:22;93363.00;;;13.00
15575;BMP180;7888;46.748;8.102;2023-04-20T09:21:50;93371.00;;;13.10
15575;BMP180;7888;46.748;8.102;2023-04-20T09:24:18;93374.00;;;13.10
15575;BMP180;7888;46.748;8.102;2023-04-20T09:26:45;93368.00;;;13.20
15575;BMP180;7888;46.748;8.102;2023-04-20T09:29:23;93357.00;;;13.20
15575;BMP180;7888;46.748;8.102;2023-04-20T09:31:51;93343.00;;;13.20
15575;BMP180;7888;46.748;8.102;2023-04-20T09:34:17;93370.00;;;13.20
15575;BMP180;7888;46.748;8.102;2023-04-20T09:36:47;93373.00;;;13.20
15575;BMP180;7888;46.748;8.102;2023-04-20T09:39:23;93375.00;;;13.00
15575;BMP180;7888;46.748;8.102;2023-04-20T09:41:51;93382.00;;;13.00
15575;BMP180;7888;46.748;8.102;2023-04-20T09:44:18;93365.00;;;12.90
15575;BMP180;7888;46.748;8.102;2023-04-20T09:46:45;93392.00;;;13.00
15575;BMP180;7888;46.748;8.102;2023-04-20T09:49:13;93398.00;;;13.00
15575;BMP180;7888;46.748;8.102;2023-04-20T09:51:43;93408.00;;;13.00
15575;BMP180;7888;46.748;8.102;2023-04-20T09:54:13;93408.00;;;13.00
15575;BMP180;7888;46.748;8.102;2023-04-20T09:56:39;93413.00;;;13.10
15575;BMP180;7888;46.748;8.102;2023-04-20T09:59:06;93413.00;;;13.00
15575;BMP180;7888;46.748;8.102;2023-04-20T10:01:33;93403.00;;;13.00
15575;BMP180;7888;46.748;8.102;2023-04-20T10:04:05;93409.00;;;13.00
15575;BMP180;7888;46.748;8.102;2023-04-20T10:06:33;93379.00;;;13.00
15575;BMP180;7888;46.748;8.102;2023-04-20T10:09:06;93375.00;;;13.10
15575;BMP180;7888;46.748;8.102;2023-04-20T10:11:39;93385.00;;;13.10
15575;BMP180;7888;46.748;8.102;2023-04-20T10:16:45;93377.00;;;13.10
15575;BMP180;7888;46.748;8.102;2023-04-20T10:19:22;93372.00;;;13.10
15575;BMP180;7888;46.748;8.102;2023-04-20T10:21:50;93358.00;;;13.20
15575;BMP180;7888;46.748;8.102;2023-04-20T10:24:29;93369.00;;;13.20
15575;BMP180;7888;46.748;8.102;2023-04-20T10:26:55;93361.00;;;13.30
15575;BMP180;7888;46.748;8.102;2023-04-20T10:29:26;93351.00;;;13.40
15575;BMP180;7888;46.748;8.102;2023-04-20T10:31:54;93353.00;;;13.50
15575;BMP180;7888;46.748;8.102;2023-04-20T10:34:31;93355.00;;;13.40
15575;BMP180;7888;46.748;8.102;2023-04-20T10:37:11;93333.00;;;13.40
15575;BMP180;7888;46.748;8.102;2023-04-20T10:39:45;93360.00;;;13.30
15575;BMP180;7888;46.748;8.102;2023-04-20T10:42:12;93355.00;;;13.30
15575;BMP180;7888;46.748;8.102;2023-04-20T10:44:51;93356.00;;;13.30
15575;BMP180;7888;46.748;8.102;2023-04-20T10:47:27;93365.00;;;13.30
15575;BMP180;7888;46.748;8.102;2023-04-20T10:49:54;93361.00;;;13.40
15575;BMP180;7888;46.748;8.102;2023-04-20T10:52:37;93368.00;;;13.40
15575;BMP180;7888;46.748;8.102;2023-04-20T10:55:06;93354.00;;;13.50
15575;BMP180;7888;46.748;8.102;2023-04-20T10:57:32;93367.00;;;13.50
15575;BMP180;7888;46.748;8.102;2023-04-20T10:59:59;93367.00;;;13.50
15575;BMP180;7888;46.748;8.102;2023-04-20T11:02:25;93363.00;;;13.60
15575;BMP180;7888;46.748;8.102;2023-04-20T11:04:52;93365.00;;;13.60
15575;BMP180;7888;46.748;8.102;2023-04-20T11:07:20;93368.00;;;13.60
15575;BMP180;7888;46.748;8.102;2023-04-20T11:09:53;93371.00;;;13.50
15575;BMP180;7888;46.748;8.102;2023-04-20T11:12:22;93369.00;;;13.40
15575;BMP180;7888;46.748;8.102;2023-04-20T11:14:54;93363.00;;;13.20
15575;BMP180;7888;46.748;8.102;2023-04-20T11:17:35;93370.00;;;13.10
15575;BMP180;7888;46.748;8.102;2023-04-20T11:20:09;93368.00;;;13.00
15575;BMP180;7888;46.748;8.102;2023-04-20T11:22:38;93364.00;;;13.10
15575;BMP180;7888;46.748;8.102;2023-04-20T11:25:07;93363.00;;;13.10
15575;BMP180;7888;46.748;8.102;2023-04-20T11:27:35;93365.00;;;13.10
15575;BMP180;7888;46.748;8.102;2023-04-20T11:30:02;93368.00;;;13.10
15575;BMP180;7888;46.748;8.102;2023-04-20T11:32:31;93354.00;;;13.20
15575;BMP180;7888;46.748;8.102;2023-04-20T11:35:05;93357.00;;;13.20
15575;BMP180;7888;46.748;8.102;2023-04-20T11:37:49;93336.00;;;13.20
15575;BMP180;7888;46.748;8.102;2023-04-20T11:40:19;93348.00;;;13.30
15575;BMP180;7888;46.748;8.102;2023-04-20T11:42:44;93342.00;;;13.30
15575;BMP180;7888;46.748;8.102;2023-04-20T11:45:11;93339.00;;;13.30
15575;BMP180;7888;46.748;8.102;2023-04-20T11:47:38;93334.00;;;13.40
15575;BMP180;7888;46.748;8.102;2023-04-20T11:50:06;93333.00;;;13.40
15575;BMP180;7888;46.748;8.102;2023-04-20T11:52:32;93331.00;;;13.50
15575;BMP180;7888;46.748;8.102;2023-04-20T11:54:58;93333.00;;;13.50
15575;BMP180;7888;46.748;8.102;2023-04-20T11:57:25;93342.00;;;13.60
15575;BMP180;7888;46.748;8.102;2023-04-20T11:59:51;93347.00;;;13.60
15575;BMP180;7888;46.748;8.102;2023-04-20T12:02:17;93336.00;;;13.70
15575;BMP180;7888;46.748;8.102;2023-04-20T12:04:43;93347.00;;;13.70
15575;BMP180;7888;46.748;8.102;2023-04-20T12:07:09;93346.00;;;13.70
15575;BMP180;7888;46.748;8.102;2023-04-20T12:09:35;93349.00;;;13.70
15575;BMP180;7888;46.748;8.102;2023-04-20T12:12:06;93355.00;;;13.70
15575;BMP180;7888;46.748;8.102;2023-04-20T12:14:33;93349.00;;;13.80
15575;BMP180;7888;46.748;8.102;2023-04-20T12:17:02;93357.00;;;13.80
15575;BMP180;7888;46.748;8.102;2023-04-20T12:19:29;93357.00;;;13.70
15575;BMP180;7888;46.748;8.102;2023-04-20T12:21:55;93358.00;;;13.70
15575;BMP180;7888;46.748;8.102;2023-04-20T12:24:22;93360.00;;;13.80
15575;BMP180;7888;46.748;8.102;2023-04-20T12:26:48;93369.00;;;13.80
15575;BMP180;7888;46.748;8.102;2023-04-20T12:29:14;93370.00;;;13.80
15575;BMP180;7888;46.748;8.102;2023-04-20T12:31:41;93362.00;;;13.70
15575;BMP180;7888;46.748;8.102;2023-04-20T12:34:07;93356.00;;;13.70
15575;BMP180;7888;46.748;8.102;2023-04-20T12:36:34;93370.00;;;13.70
15575;BMP180;7888;46.748;8.102;2023-04-20T12:39:01;93362.00;;;13.70
15575;BMP180;7888;46.748;8.102;2023-04-20T13:36:39;93391.00;;;13.20
15575;BMP180;7888;46.748;8.102;2023-04-20T13:39:07;93391.00;;;13.30
15575;BMP180;7888;46.748;8.102;2023-04-20T13:41:35;93382.00;;;13.30
15575;BMP180;7888;46.748;8.102;2023-04-20T13:44:01;93389.00;;;13.40
15575;BMP180;7888;46.748;8.102;2023-04-20T13:46:28;93398.00;;;13.40
15575;BMP180;7888;46.748;8.102;2023-04-20T13:48:54;93403.00;;;13.40
15575;BMP180;7888;46.748;8.102;2023-04-20T13:51:20;93400.00;;;13.40
15575;BMP180;7888;46.748;8.102;2023-04-20T13:53:46;93408.00;;;13.40
15575;BMP180;7888;46.748;8.102;2023-04-20T13:56:15;93414.00;;;13.40
15575;BMP180;7888;46.748;8.102;2023-04-20T13:58:42;93414.00;;;13.40
15575;BMP180;7888;46.748;8.102;2023-04-20T14:01:12;93403.00;;;13.30
15575;BMP180;7888;46.748;8.102;2023-04-20T14:03:41;93411.00;;;13.30
15575;BMP180;7888;46.748;8.102;2023-04-20T14:06:08;93424.00;;;13.30
15575;BMP180;7888;46.748;8.102;2023-04-20T14:08:35;93429.00;;;13.30
15575;BMP180;7888;46.748;8.102;2023-04-20T14:11:01;93433.00;;;13.20
15575;BMP180;7888;46.748;8.102;2023-04-20T14:13:27;93434.00;;;13.10
15575;BMP180;7888;46.748;8.102;2023-04-20T14:15:55;93436.00;;;13.10
15575;BMP180;7888;46.748;8.102;2023-04-20T14:18:21;93440.00;;;13.00
15575;BMP180;7888;46.748;8.102;2023-04-20T14:20:47;93444.00;;;13.00
15575;BMP180;7888;46.748;8.102;2023-04-20T14:23:18;93441.00;;;12.90
15575;BMP180;7888;46.748;8.102;2023-04-20T14:25:44;93429.00;;;12.90
15575;BMP180;7888;46.748;8.102;2023-04-20T14:28:10;93458.00;;;12.80
15575;BMP180;7888;46.748;8.102;2023-04-20T14:30:37;93446.00;;;12.80
15575;BMP180;7888;46.748;8.102;2023-04-20T14:33:03;93462.00;;;12.80
15575;BMP180;7888;46.748;8.102;2023-04-20T14:35:30;93429.00;;;12.80
15575;BMP180;7888;46.748;8.102;2023-04-20T14:37:56;93463.00;;;12.70
15575;BMP180;7888;46.748;8.102;2023-04-20T14:40:22;93474.00;;;12.70
15575;BMP180;7888;46.748;8.102;2023-04-20T14:42:47;93474.00;;;12.70
15575;BMP180;7888;46.748;8.102;2023-04-20T14:45:13;93462.00;;;12.70
15575;BMP180;7888;46.748;8.102;2023-04-20T14:47:39;93482.00;;;12.70
15575;BMP180;7888;46.748;8.102;2023-04-20T14:50:09;93485.00;;;12.70
15575;BMP180;7888;46.748;8.102;2023-04-20T14:52:35;93488.00;;;12.60
15575;BMP180;7888;46.748;8.102;2023-04-20T14:55:01;93485.00;;;12.60
15575;BMP180;7888;46.748;8.102;2023-04-20T14:57:28;93486.00;;;12.60
15575;BMP180;7888;46.748;8.102;2023-04-20T14:59:55;93498.00;;;12.70
15575;BMP180;7888;46.748;8.102;2023-04-20T15:02:21;93499.00;;;12.70
15575;BMP180;7888;46.748;8.102;2023-04-20T15:04:47;93502.00;;;12.70
15575;BMP180;7888;46.748;8.102;2023-04-20T15:07:13;93465.00;;;12.70
15575;BMP180;7888;46.748;8.102;2023-04-20T15:09:39;93497.00;;;12.70
15575;BMP180;7888;46.748;8.102;2023-04-20T15:12:04;93497.00;;;12.70
15575;BMP180;7888;46.748;8.102;2023-04-20T15:14:30;93502.00;;;12.70
15575;BMP180;7888;46.748;8.102;2023-04-20T15:16:56;93478.00;;;12.70
15575;BMP180;7888;46.748;8.102;2023-04-20T15:19:22;93505.00;;;12.60